Flight Track Log - Related Links

Times and Time Zones

All times are in EDT time to prevent confusion due to time zone crossing. See the CPT7773 flight status page for this flight to view local times or setup timezone preferences in your user account.

Time Position Orientation Groundspeed Altitude Reporting Facility
EDT Latitude Longitude Course Direction KTS MPH feet Rate Location/Type
Fri 07:59:31 PM 44.4953 -108.9375 126° Southeast 125 144 7,700  Level Salt Lake Center
Fri 08:00:33 PM 44.4756 -108.8992 126° Southeast 127 146 8,800 927 Climbing Salt Lake Center
Fri 08:01:34 PM 44.4514 -108.8547 127° Southeast 128 147 9,600 829 Climbing Salt Lake Center
Fri 08:02:36 PM 44.4303 -108.8167 128° Southeast 128 147 10,500 677 Climbing Salt Lake Center
Fri 08:03:38 PM 44.4039 -108.7681 127° Southeast 133 153 11,000 293 Climbing Salt Lake Center
Fri 08:04:39 PM 44.3792 -108.7219 127° Southeast 143 165 11,100 49 Climbing Salt Lake Center
Fri 08:05:41 PM 44.3528 -108.6742 128° Southeast 153 176 11,100  Level Salt Lake Center
Fri 08:06:43 PM 44.3222 -108.6158 126° Southeast 161 185 11,100  Level Salt Lake Center
Fri 08:07:44 PM 44.2969 -108.5650 125° Southeast 165 190 11,100  Level Salt Lake Center
Fri 08:08:46 PM 44.2667 -108.5106 128° Southeast 163 188 11,100  Level Salt Lake Center
Fri 08:09:48 PM 44.2411 -108.4642 128° Southeast 160 184 11,100  Level Salt Lake Center
Fri 08:10:49 PM 44.2119 -108.4086 126° Southeast 159 183 11,100  Level Salt Lake Center
Fri 08:11:51 PM 44.1864 -108.3597 126° Southeast 160 184 11,100  Level Salt Lake Center
Fri 08:12:53 PM 44.1542 -108.3031 128° Southeast 164 189 11,100  Level Salt Lake Center
Fri 08:13:54 PM 44.1283 -108.2533 126° Southeast 166 191 11,100  Level Salt Lake Center
Fri 08:14:56 PM 44.1008 -108.2019 127° Southeast 169 194 11,100  Level Salt Lake Center
Fri 08:15:58 PM 44.0697 -108.1453 127° Southeast 168 193 11,100  Level Salt Lake Center
Fri 08:17:00 PM 44.0436 -108.0964 127° Southeast 166 191 11,100 -49 Level Salt Lake Center
Fri 08:18:01 PM 44.0119 -108.0400 128° Southeast 166 191 11,000 -49 Descending Salt Lake Center
Fri 08:19:03 PM 43.9844 -107.9908 128° Southeast 166 191 11,000  Level Salt Lake Center
Fri 08:20:05 PM 43.9506 -107.9311 128° Southeast 172 198 11,000  Level Salt Lake Center
Fri 08:21:07 PM 43.9250 -107.8817 126° Southeast 170 196 11,000  Level Salt Lake Center
Fri 08:22:08 PM 43.8978 -107.8231 123° Southeast 166 191 11,000  Level Salt Lake Center
Fri 08:23:10 PM 43.8756 -107.7761 123° Southeast 160 184 11,000  Level Salt Lake Center
Fri 08:24:12 PM 43.8517 -107.7314 127° Southeast 155 178 11,000  Level Salt Lake Center
Fri 08:25:13 PM 43.8214 -107.6761 127° Southeast 157 181 11,000  Level Salt Lake Center
Fri 08:26:15 PM 43.7950 -107.6258 126° Southeast 163 188 11,000  Level Salt Lake Center
Fri 08:27:17 PM 43.7658 -107.5692 125° Southeast 163 188 11,000 -48 Level Salt Lake Center
Fri 08:28:19 PM 43.7394 -107.5189 126° Southeast 166 191 10,900  Descending Salt Lake Center
Fri 08:29:21 PM 43.7100 -107.4603 125° Southeast 166 191 11,000 49 Climbing Salt Lake Center
Fri 08:30:22 PM 43.6853 -107.4119 125° Southeast 164 189 11,000 49 Level Salt Lake Center
Fri 08:31:24 PM 43.6592 -107.3592 124° Southeast 156 180 11,100  Climbing Salt Lake Center
Fri 08:32:26 PM 43.6356 -107.3128 125° Southeast 155 178 11,000 -49 Descending Salt Lake Center
Fri 08:33:27 PM 43.6117 -107.2681 126° Southeast 153 176 11,000  Level Salt Lake Center
Fri 08:34:29 PM 43.5850 -107.2153 125° Southeast 151 174 11,000  Level Salt Lake Center
Fri 08:35:31 PM 43.5617 -107.1728 127° Southeast 149 171 11,000  Level Salt Lake Center
Fri 08:36:33 PM 43.5344 -107.1217 126° Southeast 148 170 11,000  Level Salt Lake Center
Fri 08:37:26 PM 43.5203 -107.0908 122° Southeast 148 170 11,000  Level Denver Center
Fri 08:38:28 PM 43.4894 -107.0269 124° Southeast 154 177 11,000  Level Denver Center
Fri 08:39:30 PM 43.4653 -106.9861 129° Southeast 146 168 11,000  Level Denver Center
Fri 08:40:32 PM 43.4378 -106.9317 125° Southeast 154 177 11,000  Level Denver Center
Fri 08:41:33 PM 43.4131 -106.8839 125° Southeast 159 183 11,000  Level Denver Center
Fri 08:42:35 PM 43.3844 -106.8328 128° Southeast 159 183 11,000 -242 Level Denver Center
Fri 08:43:37 PM 43.3617 -106.7861 124° Southeast 154 177 10,500 -488 Descending Denver Center
Fri 08:44:38 PM 43.3297 -106.7303 128° Southeast 164 189 10,000 -244 Descending Denver Center
Fri 08:45:40 PM 43.2917 -106.7056 155° Southeast 162 186 10,000 -48 Level Denver Center
Fri 08:46:42 PM 43.2411 -106.6925 169° South 167 192 9,900 -390 Descending Denver Center
Fri 08:47:43 PM 43.2006 -106.6672 156° South 167 192 9,200 -780 Descending Denver Center
Fri 08:48:45 PM 43.1603 -106.6419 155° Southeast 167 192 8,300 -581 Descending Denver Center
Fri 08:49:47 PM 43.1106 -106.6144 158° South 169 194 8,000 -293 Descending Denver Center
Fri 08:50:48 PM 43.0689 -106.5908 158° South 170 196 7,700 -390 Descending Denver Center
Fri 08:51:50 PM 43.0200 -106.5606 156° South 171 197 7,200 -290 Descending Denver Center
Fri 08:52:52 PM 42.9797 -106.5378 158° South 172 198 7,100 -97 Descending Denver Center
Fri 08:54:00 PM 42.9396 -106.4936 141° Southeast  Level FlightAware Approximate
Fri 09:01:00 PM 42.9080 -106.4644 148° Southeast  Level Estimated
Fri 09:02:00 PM 42.9080 -106.4644 148° Southeast  Level Estimated
Fri 09:03:00 PM 42.9080 -106.4644 148° Southeast  Level Estimated
Fri 09:04:00 PM 42.9080 -106.4644 148° Southeast  Level Estimated

Login

Don't have an account? Register now (free) for customized features, flight alerts, and more!